createdAt,value
2022-12-23T00:00:15.246Z,100388.98
2022-12-23T00:02:44.888Z,100402.73
2022-12-23T00:05:15.040Z,100405.50
2022-12-23T00:07:44.924Z,100412.06
2022-12-23T00:10:15.383Z,100413.31
2022-12-23T00:13:02.913Z,100407.55
2022-12-23T00:15:32.764Z,100408.39
2022-12-23T00:18:02.304Z,100416.28
2022-12-23T00:20:31.564Z,100427.77
2022-12-23T00:23:06.697Z,100426.92
2022-12-23T00:25:41.666Z,100425.95
2022-12-23T00:28:13.685Z,100429.08
2022-12-23T00:30:51.795Z,100445.19
2022-12-23T00:33:30.062Z,100440.54
2022-12-23T00:35:59.593Z,100448.08
2022-12-23T00:38:47.596Z,100457.99
2022-12-23T00:41:37.096Z,100463.25
2022-12-23T00:44:06.860Z,100455.97
2022-12-23T00:46:36.625Z,100455.97
2022-12-23T00:49:25.217Z,100459.57
2022-12-23T00:51:54.523Z,100456.57
2022-12-23T00:54:24.163Z,100464.12
2022-12-23T00:56:53.369Z,100458.86
2022-12-23T00:59:22.909Z,100456.10
2022-12-23T01:02:10.413Z,100461.16
2022-12-23T01:04:58.971Z,100462.09
2022-12-23T01:07:28.328Z,100463.06
2022-12-23T01:09:57.878Z,100454.98
2022-12-23T01:12:27.249Z,100459.73
2022-12-23T01:14:56.679Z,100459.73
2022-12-23T01:17:25.917Z,100458.52
2022-12-23T01:19:55.228Z,100464.59
2022-12-23T01:22:24.416Z,100465.36
2022-12-23T01:24:53.771Z,100463.54
2022-12-23T01:27:22.963Z,100461.05
2022-12-23T01:29:52.604Z,100469.30
2022-12-23T01:32:21.801Z,100468.59
2022-12-23T01:34:51.315Z,100476.34
2022-12-23T01:37:20.519Z,100481.13
2022-12-23T01:39:50.065Z,100483.12
2022-12-23T01:42:39.147Z,100481.26
2022-12-23T01:45:29.206Z,100486.38
2022-12-23T01:48:04.433Z,100490.45
2022-12-23T01:50:39.018Z,100508.48
2022-12-23T01:53:26.476Z,100505.11
2022-12-23T01:56:02.007Z,100510.16
2022-12-23T01:58:36.403Z,100513.97
2022-12-23T02:01:25.710Z,100521.00
2022-12-23T02:03:57.946Z,100522.31
2022-12-23T02:06:57.066Z,100525.58
2022-12-23T02:09:29.444Z,100526.52
2022-12-23T02:12:36.617Z,100522.95
2022-12-23T02:15:27.415Z,100524.16
2022-12-23T02:18:32.601Z,100523.34
2022-12-23T02:21:24.890Z,100535.98
2022-12-23T02:24:09.548Z,100537.41
2022-12-23T02:26:45.144Z,100533.09
2022-12-23T02:29:27.045Z,100537.66
2022-12-23T02:32:36.311Z,100547.91
2022-12-23T02:35:23.993Z,100557.71
2022-12-23T02:38:14.065Z,100569.19
2022-12-23T02:40:58.606Z,100576.70
2022-12-23T02:43:42.721Z,100580.89
2022-12-23T02:46:18.368Z,100578.52
2022-12-23T02:48:53.556Z,100589.16
2022-12-23T02:51:25.860Z,100584.84
2022-12-23T02:53:57.524Z,100585.81
2022-12-23T02:56:28.635Z,100578.91
2022-12-23T02:59:06.878Z,100593.61
2022-12-23T03:01:37.463Z,100590.01
2022-12-23T03:04:07.678Z,100582.25
2022-12-23T03:06:40.175Z,100578.78
2022-12-23T03:09:11.156Z,100582.98
2022-12-23T03:11:52.610Z,100580.02
2022-12-23T03:14:33.698Z,100586.58
2022-12-23T03:17:24.365Z,100583.23
2022-12-23T03:19:57.040Z,100579.77
2022-12-23T03:22:27.320Z,100578.23
2022-12-23T03:25:09.048Z,100578.95
2022-12-23T03:27:47.064Z,100581.58
2022-12-23T03:30:18.506Z,100572.98
2022-12-23T03:32:59.987Z,100581.84
2022-12-23T03:35:32.546Z,100581.58
2022-12-23T03:38:03.768Z,100578.11
2022-12-23T03:40:38.157Z,100573.33
2022-12-23T03:43:10.383Z,100575.27
2022-12-23T03:45:49.021Z,100571.33
2022-12-23T03:48:23.855Z,100574.08
2022-12-23T03:50:56.329Z,100578.11
2022-12-23T03:53:31.368Z,100585.52
2022-12-23T03:56:06.828Z,100594.13
2022-12-23T03:58:50.130Z,100591.97
2022-12-23T04:01:43.763Z,100590.66
2022-12-23T04:04:22.172Z,100591.38
2022-12-23T04:06:54.057Z,100600.56
2022-12-23T04:09:25.061Z,100601.16
2022-12-23T04:11:54.845Z,100597.59
2022-12-23T04:14:24.564Z,100599.50
2022-12-23T04:16:59.302Z,100604.97
2022-12-23T04:19:28.580Z,100613.10
2022-12-23T04:21:58.214Z,100615.61
2022-12-23T04:24:27.417Z,100621.70
2022-12-23T04:26:56.756Z,100617.30
2022-12-23T04:29:26.354Z,100619.08
2022-12-23T04:31:56.167Z,100627.42
2022-12-23T04:34:25.769Z,100622.42
2022-12-23T04:36:55.311Z,100627.08
2022-12-23T04:39:24.556Z,100618.61
2022-12-23T04:41:53.817Z,100615.36
2022-12-23T04:44:23.079Z,100601.66
2022-12-23T04:46:52.465Z,100598.19
2022-12-23T04:49:22.067Z,100597.47
2022-12-23T04:51:51.278Z,100600.47
2022-12-23T04:54:20.503Z,100592.34
2022-12-23T04:56:49.705Z,100597.34
2022-12-23T04:59:18.959Z,100594.47
2022-12-23T05:01:48.360Z,100595.56
2022-12-23T05:04:18.153Z,100591.97
2022-12-23T05:06:47.668Z,100598.53
2022-12-23T05:09:17.087Z,100601.29
2022-12-23T05:11:46.942Z,100598.79
2022-12-23T05:14:16.156Z,100616.80
2022-12-23T05:16:45.788Z,100625.98
2022-12-23T05:19:15.139Z,100628.52
2022-12-23T05:21:44.395Z,100626.11
2022-12-23T05:24:13.902Z,100629.11
2022-12-23T05:26:47.721Z,100635.00
2022-12-23T05:29:14.628Z,100640.37
2022-12-23T05:31:44.234Z,100651.69
2022-12-23T05:34:13.622Z,100651.44
2022-12-23T05:36:43.173Z,100652.75
2022-12-23T05:39:12.801Z,100648.47
2022-12-23T05:41:42.175Z,100650.75
2022-12-23T05:44:11.394Z,100654.20
2022-12-23T05:46:40.999Z,100651.00
2022-12-23T05:49:10.364Z,100640.63
2022-12-23T05:51:39.815Z,100638.34
2022-12-23T05:54:09.053Z,100632.38
2022-12-23T05:56:38.424Z,100627.49
2022-12-23T05:59:07.658Z,100620.34
2022-12-23T06:01:37.112Z,100616.39
2022-12-23T06:04:06.822Z,100611.27
2022-12-23T06:06:36.499Z,100603.39
2022-12-23T06:09:06.020Z,100603.02
2022-12-23T06:11:35.440Z,100605.05
2022-12-23T06:14:06.310Z,100595.14
2022-12-23T06:16:35.865Z,100600.05
2022-12-23T06:19:05.266Z,100599.58
2022-12-23T06:21:34.744Z,100601.45
2022-12-23T06:24:04.473Z,100599.80
2022-12-23T06:26:35.323Z,100598.39
2022-12-23T06:29:05.046Z,100611.95
2022-12-23T06:31:34.633Z,100610.42
2022-12-23T06:34:04.050Z,100610.30
2022-12-23T06:36:33.391Z,100607.92
2022-12-23T06:39:02.611Z,100607.92
2022-12-23T06:41:32.023Z,100609.95
2022-12-23T06:44:01.461Z,100609.83
2022-12-23T06:46:30.829Z,100614.62
2022-12-23T06:49:00.657Z,100624.02
2022-12-23T06:51:30.199Z,100629.65
2022-12-23T06:54:01.105Z,100638.34
2022-12-23T06:56:30.757Z,100643.13
2022-12-23T06:58:59.966Z,100653.28
2022-12-23T07:01:29.365Z,100660.66
2022-12-23T07:03:58.840Z,100658.88
2022-12-23T07:06:28.089Z,100653.16
2022-12-23T07:08:57.327Z,100639.31
2022-12-23T07:11:26.996Z,100627.97
2022-12-23T07:13:56.202Z,100638.13
2022-12-23T07:16:26.698Z,100639.06
2022-12-23T07:18:55.929Z,100635.84
2022-12-23T07:21:29.394Z,100638.22
2022-12-23T07:23:56.708Z,100637.03
2022-12-23T07:26:26.242Z,100631.30
2022-12-23T07:28:55.850Z,100626.02
2022-12-23T07:31:25.116Z,100625.42
2022-12-23T07:33:54.774Z,100625.77
2022-12-23T07:36:23.963Z,100624.45
2022-12-23T07:38:53.557Z,100623.14
2022-12-23T07:41:23.167Z,100624.11
2022-12-23T07:43:52.837Z,100625.68
2022-12-23T07:46:22.502Z,100622.67
2022-12-23T07:48:52.065Z,100622.92
2022-12-23T07:51:21.688Z,100619.11
2022-12-23T07:53:51.628Z,100637.80
2022-12-23T07:56:21.195Z,100622.55
2022-12-23T07:58:52.338Z,100630.68
2022-12-23T08:01:22.303Z,100620.27
2022-12-23T08:03:51.683Z,100606.54
2022-12-23T08:06:21.002Z,100622.42
2022-12-23T08:08:50.255Z,100617.89
2022-12-23T08:11:19.886Z,100594.50
2022-12-23T08:13:49.779Z,100591.03
2022-12-23T08:16:19.023Z,100603.57
2022-12-23T08:18:48.398Z,100594.97
2022-12-23T08:21:19.911Z,100600.09
2022-12-23T08:23:49.530Z,100604.50
2022-12-23T08:26:24.489Z,100597.59
2022-12-23T08:28:53.858Z,100616.92
2022-12-23T08:31:26.280Z,100619.45
2022-12-23T08:33:57.840Z,100609.04
2022-12-23T08:36:30.129Z,100603.79
2022-12-23T08:39:01.538Z,100600.34
2022-12-23T08:41:34.005Z,100593.16
2022-12-23T08:44:03.386Z,100591.38
2022-12-23T08:46:32.835Z,100584.34
2022-12-23T08:49:02.340Z,100586.84
2022-12-23T08:51:32.556Z,100583.15
2022-12-23T08:54:02.262Z,100577.27
2022-12-23T08:56:34.227Z,100580.02
2022-12-23T08:59:04.081Z,100578.33
2022-12-23T09:01:35.133Z,100568.91
2022-12-23T09:04:05.846Z,100559.37
2022-12-23T09:06:41.558Z,100556.51
2022-12-23T09:09:13.117Z,100549.13
2022-12-23T09:11:42.961Z,100538.50
2022-12-23T09:14:12.710Z,100534.55
2022-12-23T09:16:42.769Z,100535.61
2022-12-23T09:19:12.186Z,100533.00
2022-12-23T09:21:41.636Z,100533.58
2022-12-23T09:24:10.863Z,100524.73
2022-12-23T09:26:40.487Z,100526.17
2022-12-23T09:29:09.903Z,100527.41
2022-12-23T09:31:39.562Z,100524.99
2022-12-23T09:34:10.846Z,100529.77
2022-12-23T09:36:40.087Z,100527.36
2022-12-23T09:39:10.271Z,100518.53
2022-12-23T09:41:51.440Z,100508.77
2022-12-23T09:44:29.753Z,100507.53
2022-12-23T09:47:02.200Z,100513.28
2022-12-23T09:49:31.728Z,100511.05
2022-12-23T09:52:03.711Z,100520.92
2022-12-23T09:54:42.547Z,100518.16
2022-12-23T09:57:36.431Z,100507.23
2022-12-23T10:00:09.025Z,100500.54
2022-12-23T10:02:44.994Z,100503.18
2022-12-23T10:05:38.808Z,100499.11
2022-12-23T10:08:31.410Z,100496.73
2022-12-23T10:11:03.736Z,100495.89
2022-12-23T10:13:48.534Z,100489.66
2022-12-23T10:16:20.283Z,100484.78
2022-12-23T10:18:52.780Z,100481.57
2022-12-23T10:21:31.549Z,100468.83
2022-12-23T10:24:04.069Z,100471.92
2022-12-23T10:26:33.278Z,100456.67
2022-12-23T10:29:19.350Z,100446.39
2022-12-23T10:32:08.889Z,100449.60
2022-12-23T10:34:44.220Z,100449.97
2022-12-23T10:37:25.578Z,100439.47
2022-12-23T10:40:03.521Z,100429.23
2022-12-23T10:42:38.821Z,100419.45
2022-12-23T10:45:28.589Z,100424.45
2022-12-23T10:48:20.623Z,100418.59
2022-12-23T10:51:04.361Z,100410.20
2022-12-23T10:53:37.191Z,100402.78
2022-12-23T10:56:07.338Z,100406.80
2022-12-23T10:58:42.364Z,100405.72
2022-12-23T11:01:18.958Z,100409.03
2022-12-23T11:04:08.708Z,100417.94
2022-12-23T11:06:40.675Z,100429.12
2022-12-23T11:09:13.648Z,100432.46
2022-12-23T11:11:58.427Z,100421.24
2022-12-23T11:14:36.419Z,100412.31
2022-12-23T11:17:07.885Z,100401.12
2022-12-23T11:19:37.100Z,100376.52
2022-12-23T11:22:06.715Z,100373.58
2022-12-23T11:24:43.138Z,100370.01
2022-12-23T11:27:13.971Z,100360.18
2022-12-23T11:29:51.675Z,100351.63
2022-12-23T11:32:26.735Z,100342.33
2022-12-23T11:34:57.353Z,100334.32
2022-12-23T11:37:32.675Z,100335.37
2022-12-23T11:40:01.982Z,100331.43
2022-12-23T11:42:32.127Z,100315.67
2022-12-23T11:45:01.744Z,100313.69
2022-12-23T11:47:43.362Z,100307.35
2022-12-23T11:50:30.371Z,100288.16
2022-12-23T11:53:08.985Z,100275.98
2022-12-23T11:55:40.638Z,100274.73
2022-12-23T11:58:13.920Z,100269.27
2022-12-23T12:00:46.383Z,100268.56
2022-12-23T12:03:20.799Z,100275.26
2022-12-23T12:05:56.304Z,100268.22
2022-12-23T12:08:33.090Z,100269.30
2022-12-23T12:11:17.673Z,100264.69
2022-12-23T12:13:51.755Z,100252.23
2022-12-23T12:16:41.930Z,100226.12
2022-12-23T12:19:26.476Z,100219.42
2022-12-23T12:21:58.662Z,100205.12
2022-12-23T12:24:31.112Z,100191.86
2022-12-23T12:27:02.984Z,100187.17
2022-12-23T12:29:35.772Z,100178.02
2022-12-23T12:32:06.662Z,100165.98
2022-12-23T12:34:57.243Z,100163.19
2022-12-23T12:37:57.674Z,100145.70
2022-12-23T12:40:39.322Z,100148.86
2022-12-23T12:43:26.041Z,100142.84
2022-12-23T12:46:27.598Z,100141.47
2022-12-23T12:49:06.377Z,100131.58
2022-12-23T12:51:56.963Z,100122.19
2022-12-23T12:54:34.570Z,100123.64
2022-12-23T12:57:04.535Z,100122.11
2022-12-23T12:59:35.864Z,100118.11
2022-12-23T13:02:29.325Z,100101.74
2022-12-23T13:05:04.678Z,100083.41
2022-12-23T13:07:52.332Z,100079.00
2022-12-23T13:10:36.864Z,100074.14
2022-12-23T13:13:12.649Z,100070.34
2022-12-23T13:16:01.531Z,100066.06
2022-12-23T13:18:46.259Z,100054.67
2022-12-23T13:21:21.616Z,100062.35
2022-12-23T13:24:05.899Z,100061.32
2022-12-23T13:26:50.301Z,100060.14
2022-12-23T13:29:34.959Z,100048.38
2022-12-23T13:32:19.282Z,100051.48
2022-12-23T13:35:17.393Z,100062.27
2022-12-23T13:38:01.784Z,100056.26
2022-12-23T13:40:58.371Z,100050.17
2022-12-23T13:43:30.965Z,100046.23
2022-12-23T13:46:00.121Z,100036.90
2022-12-23T13:48:32.543Z,100032.97
2022-12-23T13:51:23.065Z,100028.36
2022-12-23T13:54:04.144Z,100022.83
2022-12-23T13:56:48.431Z,100014.53
2022-12-23T13:59:18.027Z,100009.42
2022-12-23T14:01:49.646Z,100000.56
2022-12-23T14:04:38.775Z,100010.45
2022-12-23T14:07:22.814Z,100005.14
2022-12-23T14:09:58.369Z,100001.20
2022-12-23T14:12:29.792Z,99994.36
2022-12-23T14:15:25.188Z,99995.67
2022-12-23T14:18:04.917Z,100009.83
2022-12-23T14:20:52.809Z,99998.06
2022-12-23T14:23:42.018Z,99998.77
2022-12-23T14:26:25.980Z,99985.22
2022-12-23T14:29:13.679Z,100003.88
2022-12-23T14:31:47.942Z,100013.02
2022-12-23T14:34:24.063Z,100014.11
2022-12-23T14:37:25.509Z,99994.13
2022-12-23T14:39:55.244Z,100013.73
2022-12-23T14:42:36.647Z,100023.77
2022-12-23T14:45:32.106Z,100005.38
2022-12-23T14:48:02.282Z,100017.63
2022-12-23T14:50:40.425Z,99994.17
2022-12-23T14:53:24.975Z,100011.25
2022-12-23T14:56:12.546Z,100005.05
2022-12-23T14:58:54.197Z,99998.53
2022-12-23T15:01:49.904Z,99995.76
2022-12-23T15:04:27.620Z,99991.68
2022-12-23T15:07:00.313Z,100003.50
2022-12-23T15:09:41.470Z,99996.05
2022-12-23T15:12:19.492Z,99996.59
2022-12-23T15:14:54.431Z,99996.45
2022-12-23T15:17:32.835Z,100001.09
2022-12-23T15:20:23.802Z,100008.83
2022-12-23T15:22:53.392Z,100001.23
2022-12-23T15:25:36.778Z,100007.66
2022-12-23T15:28:06.741Z,100008.33
2022-12-23T15:30:38.036Z,100013.72
2022-12-23T15:33:35.150Z,100013.39
2022-12-23T15:35:41.401Z,100010.95
2022-12-23T15:38:14.230Z,100008.04
2022-12-23T15:40:43.080Z,100023.66
2022-12-23T15:43:20.524Z,100034.50
2022-12-23T15:45:50.448Z,100034.19
2022-12-23T15:48:34.786Z,100041.71
2022-12-23T15:51:06.699Z,100048.88
2022-12-23T15:53:41.518Z,100062.13
2022-12-23T15:56:22.636Z,100059.39
2022-12-23T15:58:52.284Z,100073.57
2022-12-23T16:01:22.467Z,100080.55
2022-12-23T16:03:54.893Z,100077.73
2022-12-23T16:06:29.673Z,100084.75
2022-12-23T16:09:04.720Z,100091.46
2022-12-23T16:11:43.091Z,100089.26
2022-12-23T16:14:25.353Z,100090.67
2022-12-23T16:16:56.791Z,100089.45
2022-12-23T16:19:45.947Z,100090.16
2022-12-23T16:22:30.210Z,100098.30
2022-12-23T16:25:20.218Z,100101.41
2022-12-23T16:27:58.340Z,100105.39
2022-12-23T16:30:30.292Z,100117.30
2022-12-23T16:33:02.386Z,100117.95
2022-12-23T16:35:39.888Z,100122.92
2022-12-23T16:38:18.169Z,100121.48
2022-12-23T16:40:49.442Z,100125.83
2022-12-23T16:43:19.700Z,100133.73
2022-12-23T16:45:55.164Z,100132.86
2022-12-23T16:48:33.110Z,100126.13
2022-12-23T16:51:04.789Z,100143.69
2022-12-23T16:53:34.292Z,100128.22
2022-12-23T16:56:03.574Z,100127.98
2022-12-23T16:58:32.803Z,100139.92
2022-12-23T17:01:02.057Z,100147.67
2022-12-23T17:03:32.964Z,100148.09
2022-12-23T17:06:02.208Z,100150.44
2022-12-23T17:08:31.687Z,100155.49
2022-12-23T17:11:01.274Z,100148.58
2022-12-23T17:13:30.648Z,100150.23
2022-12-23T17:15:59.962Z,100154.73
2022-12-23T17:18:29.204Z,100159.73
2022-12-23T17:20:58.518Z,100155.20
2022-12-23T17:23:30.559Z,100166.13
2022-12-23T17:26:00.487Z,100170.91
2022-12-23T17:28:32.626Z,100161.30
2022-12-23T17:31:02.399Z,100163.09
2022-12-23T17:33:33.843Z,100162.14
2022-12-23T17:36:03.564Z,100172.27
2022-12-23T17:38:32.798Z,100170.48
2022-12-23T17:41:02.369Z,100176.41
2022-12-23T17:43:31.587Z,100174.47
2022-12-23T17:46:01.113Z,100172.27
2022-12-23T17:48:31.985Z,100186.20
2022-12-23T17:51:01.545Z,100178.52
2022-12-23T17:53:30.732Z,100195.23
2022-12-23T17:56:00.127Z,100191.50
2022-12-23T17:58:29.294Z,100200.09
2022-12-23T18:00:58.680Z,100209.16
2022-12-23T18:03:27.816Z,100216.31
2022-12-23T18:06:01.634Z,100213.93
2022-12-23T18:08:28.089Z,100209.77
2022-12-23T18:10:58.402Z,100213.42
2022-12-23T18:13:27.631Z,100218.64
2022-12-23T18:15:57.378Z,100219.73
2022-12-23T18:18:35.628Z,100217.66
2022-12-23T18:20:59.172Z,100229.21
2022-12-23T18:23:30.397Z,100228.55
2022-12-23T18:26:00.346Z,100226.94
2022-12-23T18:28:29.888Z,100221.97
2022-12-23T18:31:00.135Z,100230.81
2022-12-23T18:33:30.398Z,100236.08
2022-12-23T18:36:00.067Z,100232.83
2022-12-23T18:38:29.766Z,100242.88
2022-12-23T18:40:58.997Z,100242.04
2022-12-23T18:43:28.506Z,100243.69
2022-12-23T18:45:57.941Z,100248.14
2022-12-23T18:48:27.269Z,100252.03
2022-12-23T18:50:56.838Z,100249.07
2022-12-23T18:53:26.505Z,100266.92
2022-12-23T18:55:56.434Z,100258.47
2022-12-23T18:58:26.127Z,100260.63
2022-12-23T19:00:56.894Z,100269.34
2022-12-23T19:03:29.739Z,100267.61
2022-12-23T19:06:04.475Z,100277.32
2022-12-23T19:08:35.845Z,100264.07
2022-12-23T19:11:11.713Z,100263.99
2022-12-23T19:13:41.407Z,100260.27
2022-12-23T19:16:17.502Z,100255.53
2022-12-23T19:18:47.595Z,100270.41
2022-12-23T19:21:18.606Z,100270.00
2022-12-23T19:23:47.879Z,100271.44
2022-12-23T19:26:17.095Z,100274.81
2022-12-23T19:28:47.946Z,100283.98
2022-12-23T19:31:18.306Z,100290.77
2022-12-23T19:33:48.702Z,100294.06
2022-12-23T19:36:22.884Z,100300.22
2022-12-23T19:38:52.808Z,100309.23
2022-12-23T19:41:22.446Z,100308.12
2022-12-23T19:43:52.476Z,100311.53
2022-12-23T19:46:22.059Z,100307.84
2022-12-23T19:48:53.252Z,100313.94
2022-12-23T19:51:22.792Z,100325.72
2022-12-23T19:53:53.087Z,100325.36
2022-12-23T19:56:22.929Z,100323.56
2022-12-23T19:58:52.274Z,100334.23
2022-12-23T20:01:23.965Z,100337.61
2022-12-23T20:03:55.087Z,100346.59
2022-12-23T20:06:27.279Z,100346.59
2022-12-23T20:09:00.861Z,100350.27
2022-12-23T20:11:31.608Z,100364.59
2022-12-23T20:14:01.985Z,100363.41
2022-12-23T20:16:32.266Z,100365.91
2022-12-23T20:19:02.007Z,100368.87
2022-12-23T20:21:31.332Z,100377.69
2022-12-23T20:24:00.889Z,100381.83
2022-12-23T20:26:30.483Z,100386.77
2022-12-23T20:28:59.931Z,100395.69
2022-12-23T20:31:31.973Z,100412.72
2022-12-23T20:34:02.413Z,100396.59
2022-12-23T20:36:34.229Z,100411.20
2022-12-23T20:39:05.000Z,100417.37
2022-12-23T20:41:34.848Z,100436.55
2022-12-23T20:46:36.104Z,100429.69
2022-12-23T20:49:07.659Z,100441.91
2022-12-23T20:51:37.100Z,100454.16
2022-12-23T20:54:06.785Z,100452.57
2022-12-23T20:56:36.085Z,100456.70
2022-12-23T20:59:05.591Z,100451.78
2022-12-23T21:01:38.108Z,100460.37
2022-12-23T21:04:08.530Z,100461.08
2022-12-23T21:06:38.011Z,100468.00
2022-12-23T21:09:09.049Z,100477.72
2022-12-23T21:11:43.540Z,100481.91
2022-12-23T21:14:14.332Z,100481.91
2022-12-23T21:16:44.417Z,100499.57
2022-12-23T21:19:19.034Z,100511.28
2022-12-23T21:21:49.229Z,100514.28
2022-12-23T21:24:19.113Z,100508.11
2022-12-23T21:26:55.721Z,100523.06
2022-12-23T21:29:21.456Z,100520.00
2022-12-23T21:31:51.248Z,100513.30
2022-12-23T21:34:20.508Z,100508.52
2022-12-23T21:36:50.395Z,100517.50
2022-12-23T21:39:19.996Z,100518.77
2022-12-23T21:41:51.697Z,100527.89
2022-12-23T21:44:21.197Z,100523.33
2022-12-23T21:46:51.924Z,100526.94
2022-12-23T21:49:22.267Z,100533.86
2022-12-23T21:51:51.703Z,100545.64
2022-12-23T21:54:21.040Z,100547.70
2022-12-23T21:56:50.501Z,100545.23
2022-12-23T21:59:19.768Z,100552.02
2022-12-23T22:01:50.455Z,100546.58
2022-12-23T22:04:20.033Z,100550.73
2022-12-23T22:06:49.287Z,100560.83
2022-12-23T22:09:20.324Z,100561.70
2022-12-23T22:11:49.828Z,100569.02
2022-12-23T22:14:20.970Z,100571.08
2022-12-23T22:16:50.492Z,100562.07
2022-12-23T22:19:19.867Z,100578.80
2022-12-23T22:21:49.700Z,100585.38
2022-12-23T22:24:19.330Z,100597.31
2022-12-23T22:26:48.814Z,100593.00
2022-12-23T22:29:18.639Z,100605.11
2022-12-23T22:31:50.293Z,100613.40
2022-12-23T22:34:22.271Z,100613.06
2022-12-23T22:36:52.279Z,100606.95
2022-12-23T22:39:22.515Z,100615.72
2022-12-23T22:41:53.226Z,100616.87
2022-12-23T22:44:24.575Z,100623.92
2022-12-23T22:46:54.179Z,100621.23
2022-12-23T22:49:23.694Z,100622.03
2022-12-23T22:51:53.382Z,100628.78
2022-12-23T22:54:22.686Z,100622.47
2022-12-23T22:56:52.279Z,100620.50
2022-12-23T22:59:24.677Z,100627.75
2022-12-23T23:01:54.795Z,100625.84
2022-12-23T23:04:24.384Z,100631.22
2022-12-23T23:06:53.650Z,100622.28
2022-12-23T23:09:23.569Z,100639.30
2022-12-23T23:11:53.244Z,100642.75
2022-12-23T23:14:22.784Z,100637.20
2022-12-23T23:16:52.691Z,100639.97
2022-12-23T23:19:22.577Z,100645.66
2022-12-23T23:21:53.550Z,100651.73
2022-12-23T23:24:29.304Z,100649.95
2022-12-23T23:26:56.043Z,100651.34
2022-12-23T23:29:25.658Z,100652.48
2022-12-23T23:31:55.064Z,100649.66
2022-12-23T23:34:24.754Z,100662.07
2022-12-23T23:36:54.412Z,100664.46
2022-12-23T23:39:23.606Z,100673.78
2022-12-23T23:41:53.342Z,100684.08
2022-12-23T23:44:22.616Z,100671.88
2022-12-23T23:46:51.892Z,100678.11
2022-12-23T23:49:23.169Z,100677.30
2022-12-23T23:51:52.585Z,100687.31
2022-12-23T23:54:21.825Z,100695.06
2022-12-23T23:56:51.493Z,100699.03
2022-12-23T23:59:20.733Z,100695.09
